sensor_id;sensor_type;location;lat;lon;timestamp;temperature;humidity
14182;DHT22;7171;50.936;6.764;2023-01-01T00:01:05;16.70;99.90
14182;DHT22;7171;50.936;6.764;2023-01-01T00:03:33;16.70;99.90
14182;DHT22;7171;50.936;6.764;2023-01-01T00:06:04;16.70;99.90
14182;DHT22;7171;50.936;6.764;2023-01-01T00:08:31;16.70;99.90
14182;DHT22;7171;50.936;6.764;2023-01-01T00:10:59;16.70;99.90
14182;DHT22;7171;50.936;6.764;2023-01-01T00:13:26;16.70;99.90
14182;DHT22;7171;50.936;6.764;2023-01-01T00:15:53;16.70;99.90
14182;DHT22;7171;50.936;6.764;2023-01-01T00:18:19;16.70;99.90
14182;DHT22;7171;50.936;6.764;2023-01-01T00:20:47;16.70;99.90
14182;DHT22;7171;50.936;6.764;2023-01-01T00:23:14;16.70;99.90
14182;DHT22;7171;50.936;6.764;2023-01-01T00:25:41;16.60;99.90
14182;DHT22;7171;50.936;6.764;2023-01-01T00:28:08;16.60;99.90
14182;DHT22;7171;50.936;6.764;2023-01-01T00:30:38;16.60;99.90
14182;DHT22;7171;50.936;6.764;2023-01-01T00:33:05;16.60;99.90
14182;DHT22;7171;50.936;6.764;2023-01-01T00:35:32;16.50;99.90
14182;DHT22;7171;50.936;6.764;2023-01-01T00:38:00;16.50;99.90
14182;DHT22;7171;50.936;6.764;2023-01-01T00:40:27;16.50;99.90
14182;DHT22;7171;50.936;6.764;2023-01-01T00:42:54;16.50;99.90
14182;DHT22;7171;50.936;6.764;2023-01-01T00:45:21;16.50;99.90
14182;DHT22;7171;50.936;6.764;2023-01-01T00:47:48;16.50;99.90
14182;DHT22;7171;50.936;6.764;2023-01-01T00:50:15;16.40;99.90
14182;DHT22;7171;50.936;6.764;2023-01-01T00:52:42;16.40;99.90
14182;DHT22;7171;50.936;6.764;2023-01-01T00:55:10;16.40;99.90
14182;DHT22;7171;50.936;6.764;2023-01-01T00:57:37;16.40;99.90
14182;DHT22;7171;50.936;6.764;2023-01-01T01:00:05;16.30;99.90
14182;DHT22;7171;50.936;6.764;2023-01-01T01:02:32;16.30;99.90
14182;DHT22;7171;50.936;6.764;2023-01-01T01:04:59;16.30;99.90
14182;DHT22;7171;50.936;6.764;2023-01-01T01:07:32;16.30;99.90
14182;DHT22;7171;50.936;6.764;2023-01-01T01:09:59;16.20;99.90
14182;DHT22;7171;50.936;6.764;2023-01-01T01:12:27;16.20;99.90
14182;DHT22;7171;50.936;6.764;2023-01-01T01:14:54;16.20;99.90
14182;DHT22;7171;50.936;6.764;2023-01-01T01:17:20;16.10;99.90
14182;DHT22;7171;50.936;6.764;2023-01-01T01:19:47;16.10;99.90
14182;DHT22;7171;50.936;6.764;2023-01-01T01:22:14;16.10;99.90
14182;DHT22;7171;50.936;6.764;2023-01-01T01:24:40;16.10;99.90
14182;DHT22;7171;50.936;6.764;2023-01-01T01:27:07;16.00;99.90
14182;DHT22;7171;50.936;6.764;2023-01-01T01:29:35;16.10;99.90
14182;DHT22;7171;50.936;6.764;2023-01-01T01:32:02;16.00;99.90
14182;DHT22;7171;50.936;6.764;2023-01-01T01:34:29;16.00;99.90
14182;DHT22;7171;50.936;6.764;2023-01-01T01:36:55;16.00;99.90
14182;DHT22;7171;50.936;6.764;2023-01-01T01:39:22;16.00;99.90
14182;DHT22;7171;50.936;6.764;2023-01-01T01:41:49;16.00;99.90
14182;DHT22;7171;50.936;6.764;2023-01-01T01:44:49;16.00;99.90
14182;DHT22;7171;50.936;6.764;2023-01-01T01:47:44;16.00;99.90
14182;DHT22;7171;50.936;6.764;2023-01-01T01:50:08;16.00;99.90
14182;DHT22;7171;50.936;6.764;2023-01-01T01:52:39;15.90;99.90
14182;DHT22;7171;50.936;6.764;2023-01-01T01:55:08;15.90;99.90
14182;DHT22;7171;50.936;6.764;2023-01-01T01:57:36;15.90;99.90
14182;DHT22;7171;50.936;6.764;2023-01-01T02:00:07;15.90;99.90
14182;DHT22;7171;50.936;6.764;2023-01-01T02:02:37;15.90;99.90
14182;DHT22;7171;50.936;6.764;2023-01-01T02:05:05;15.90;99.90
14182;DHT22;7171;50.936;6.764;2023-01-01T02:07:32;15.90;99.90
14182;DHT22;7171;50.936;6.764;2023-01-01T02:10:00;15.80;99.90
14182;DHT22;7171;50.936;6.764;2023-01-01T02:12:27;15.90;99.90
14182;DHT22;7171;50.936;6.764;2023-01-01T02:14:54;15.90;99.90
14182;DHT22;7171;50.936;6.764;2023-01-01T02:17:29;15.90;99.90
14182;DHT22;7171;50.936;6.764;2023-01-01T02:20:10;15.90;99.90
14182;DHT22;7171;50.936;6.764;2023-01-01T02:23:01;15.90;99.90
14182;DHT22;7171;50.936;6.764;2023-01-01T02:25:38;15.90;99.90
14182;DHT22;7171;50.936;6.764;2023-01-01T02:28:14;15.90;99.90
14182;DHT22;7171;50.936;6.764;2023-01-01T02:30:45;15.90;99.90
14182;DHT22;7171;50.936;6.764;2023-01-01T02:33:17;16.80;99.90
14182;DHT22;7171;50.936;6.764;2023-01-01T02:35:47;15.90;99.90
14182;DHT22;7171;50.936;6.764;2023-01-01T02:38:19;16.00;99.90
14182;DHT22;7171;50.936;6.764;2023-01-01T02:40:48;16.00;99.90
14182;DHT22;7171;50.936;6.764;2023-01-01T02:43:16;16.00;99.90
14182;DHT22;7171;50.936;6.764;2023-01-01T02:45:44;16.00;99.90
14182;DHT22;7171;50.936;6.764;2023-01-01T02:48:36;16.00;99.90
14182;DHT22;7171;50.936;6.764;2023-01-01T02:51:10;16.00;99.90
14182;DHT22;7171;50.936;6.764;2023-01-01T02:53:44;16.00;99.90
14182;DHT22;7171;50.936;6.764;2023-01-01T02:56:16;16.00;99.90
14182;DHT22;7171;50.936;6.764;2023-01-01T02:58:50;16.00;99.90
14182;DHT22;7171;50.936;6.764;2023-01-01T03:01:43;16.00;99.90
14182;DHT22;7171;50.936;6.764;2023-01-01T03:04:21;16.00;99.90
14182;DHT22;7171;50.936;6.764;2023-01-01T03:06:51;16.00;99.90
14182;DHT22;7171;50.936;6.764;2023-01-01T03:09:23;16.00;99.90
14182;DHT22;7171;50.936;6.764;2023-01-01T03:11:56;16.00;99.90
14182;DHT22;7171;50.936;6.764;2023-01-01T03:14:28;16.00;99.90
14182;DHT22;7171;50.936;6.764;2023-01-01T03:17:00;16.00;99.90
14182;DHT22;7171;50.936;6.764;2023-01-01T03:19:32;16.00;99.90
14182;DHT22;7171;50.936;6.764;2023-01-01T03:22:04;16.00;99.90
14182;DHT22;7171;50.936;6.764;2023-01-01T03:24:34;16.00;99.90
14182;DHT22;7171;50.936;6.764;2023-01-01T03:27:04;16.00;99.90
14182;DHT22;7171;50.936;6.764;2023-01-01T03:29:35;16.00;99.90
14182;DHT22;7171;50.936;6.764;2023-01-01T03:32:07;16.00;99.90
14182;DHT22;7171;50.936;6.764;2023-01-01T03:34:40;16.00;99.90
14182;DHT22;7171;50.936;6.764;2023-01-01T03:37:13;16.00;99.90
14182;DHT22;7171;50.936;6.764;2023-01-01T03:39:45;16.00;99.90
14182;DHT22;7171;50.936;6.764;2023-01-01T03:42:18;16.00;99.90
14182;DHT22;7171;50.936;6.764;2023-01-01T03:44:52;16.00;99.90
14182;DHT22;7171;50.936;6.764;2023-01-01T03:47:23;16.00;99.90
14182;DHT22;7171;50.936;6.764;2023-01-01T03:49:50;15.90;99.90
14182;DHT22;7171;50.936;6.764;2023-01-01T03:52:25;16.00;99.90
14182;DHT22;7171;50.936;6.764;2023-01-01T03:55:00;16.00;99.90
14182;DHT22;7171;50.936;6.764;2023-01-01T03:57:34;15.90;99.90
14182;DHT22;7171;50.936;6.764;2023-01-01T04:00:05;15.90;99.90
14182;DHT22;7171;50.936;6.764;2023-01-01T04:02:38;16.00;99.90
14182;DHT22;7171;50.936;6.764;2023-01-01T04:05:06;15.90;99.90
14182;DHT22;7171;50.936;6.764;2023-01-01T04:07:35;15.90;99.90
14182;DHT22;7171;50.936;6.764;2023-01-01T04:10:03;15.90;99.90
14182;DHT22;7171;50.936;6.764;2023-01-01T04:12:43;15.90;99.90
14182;DHT22;7171;50.936;6.764;2023-01-01T04:15:10;15.90;99.90
14182;DHT22;7171;50.936;6.764;2023-01-01T04:17:38;15.90;99.90
14182;DHT22;7171;50.936;6.764;2023-01-01T04:20:05;15.90;99.90
14182;DHT22;7171;50.936;6.764;2023-01-01T04:22:33;15.90;99.90
14182;DHT22;7171;50.936;6.764;2023-01-01T04:25:00;16.00;99.90
14182;DHT22;7171;50.936;6.764;2023-01-01T04:27:27;16.00;99.90
14182;DHT22;7171;50.936;6.764;2023-01-01T04:29:53;16.00;99.90
14182;DHT22;7171;50.936;6.764;2023-01-01T04:32:20;16.00;99.90
14182;DHT22;7171;50.936;6.764;2023-01-01T04:34:48;16.00;99.90
14182;DHT22;7171;50.936;6.764;2023-01-01T04:37:15;16.00;99.90
14182;DHT22;7171;50.936;6.764;2023-01-01T04:39:42;16.00;99.90
14182;DHT22;7171;50.936;6.764;2023-01-01T04:42:09;16.00;99.90
14182;DHT22;7171;50.936;6.764;2023-01-01T04:44:35;16.00;99.90
14182;DHT22;7171;50.936;6.764;2023-01-01T04:47:02;16.00;99.90
14182;DHT22;7171;50.936;6.764;2023-01-01T04:49:29;16.00;99.90
14182;DHT22;7171;50.936;6.764;2023-01-01T04:51:57;16.00;99.90
14182;DHT22;7171;50.936;6.764;2023-01-01T04:54:23;16.00;99.90
14182;DHT22;7171;50.936;6.764;2023-01-01T04:56:50;16.00;99.90
14182;DHT22;7171;50.936;6.764;2023-01-01T04:59:17;16.00;99.90
14182;DHT22;7171;50.936;6.764;2023-01-01T05:01:43;16.00;99.90
14182;DHT22;7171;50.936;6.764;2023-01-01T05:04:13;16.00;99.90
14182;DHT22;7171;50.936;6.764;2023-01-01T05:06:40;16.00;99.90
14182;DHT22;7171;50.936;6.764;2023-01-01T05:09:09;16.00;99.90
14182;DHT22;7171;50.936;6.764;2023-01-01T05:11:36;16.00;99.90
14182;DHT22;7171;50.936;6.764;2023-01-01T05:14:04;16.00;99.90
14182;DHT22;7171;50.936;6.764;2023-01-01T05:16:33;16.00;99.90
14182;DHT22;7171;50.936;6.764;2023-01-01T05:19:00;16.00;99.90
14182;DHT22;7171;50.936;6.764;2023-01-01T05:21:28;16.00;99.90
14182;DHT22;7171;50.936;6.764;2023-01-01T05:23:58;16.00;99.90
14182;DHT22;7171;50.936;6.764;2023-01-01T05:26:28;15.90;99.90
14182;DHT22;7171;50.936;6.764;2023-01-01T05:28:56;15.90;99.90
14182;DHT22;7171;50.936;6.764;2023-01-01T05:31:24;15.90;99.90
14182;DHT22;7171;50.936;6.764;2023-01-01T05:33:52;15.90;99.90
14182;DHT22;7171;50.936;6.764;2023-01-01T05:36:21;15.90;99.90
14182;DHT22;7171;50.936;6.764;2023-01-01T05:38:49;15.80;99.90
14182;DHT22;7171;50.936;6.764;2023-01-01T05:41:16;15.80;99.90
14182;DHT22;7171;50.936;6.764;2023-01-01T05:43:45;15.80;99.90
14182;DHT22;7171;50.936;6.764;2023-01-01T05:46:14;15.80;99.90
14182;DHT22;7171;50.936;6.764;2023-01-01T05:48:41;15.80;99.90
14182;DHT22;7171;50.936;6.764;2023-01-01T05:51:09;15.80;99.90
14182;DHT22;7171;50.936;6.764;2023-01-01T05:53:36;15.90;99.90
14182;DHT22;7171;50.936;6.764;2023-01-01T05:56:05;15.80;99.90
14182;DHT22;7171;50.936;6.764;2023-01-01T05:58:32;15.80;99.90
14182;DHT22;7171;50.936;6.764;2023-01-01T06:01:06;15.80;99.90
14182;DHT22;7171;50.936;6.764;2023-01-01T06:03:33;15.80;99.90
14182;DHT22;7171;50.936;6.764;2023-01-01T06:06:03;15.80;99.90
14182;DHT22;7171;50.936;6.764;2023-01-01T06:08:29;15.90;99.90
14182;DHT22;7171;50.936;6.764;2023-01-01T06:11:00;15.80;99.90
14182;DHT22;7171;50.936;6.764;2023-01-01T06:13:26;15.80;99.90
14182;DHT22;7171;50.936;6.764;2023-01-01T06:15:54;15.80;99.90
14182;DHT22;7171;50.936;6.764;2023-01-01T06:18:23;15.80;99.90
14182;DHT22;7171;50.936;6.764;2023-01-01T06:20:50;15.80;99.90
14182;DHT22;7171;50.936;6.764;2023-01-01T06:23:17;15.80;99.90
14182;DHT22;7171;50.936;6.764;2023-01-01T06:25:44;15.80;99.90
14182;DHT22;7171;50.936;6.764;2023-01-01T06:28:10;15.80;99.90
14182;DHT22;7171;50.936;6.764;2023-01-01T06:30:37;15.80;99.90
14182;DHT22;7171;50.936;6.764;2023-01-01T06:33:04;15.80;99.90
14182;DHT22;7171;50.936;6.764;2023-01-01T06:35:32;15.80;99.90
14182;DHT22;7171;50.936;6.764;2023-01-01T06:37:59;15.80;99.90
14182;DHT22;7171;50.936;6.764;2023-01-01T06:40:26;15.80;99.90
14182;DHT22;7171;50.936;6.764;2023-01-01T06:42:52;15.80;99.90
14182;DHT22;7171;50.936;6.764;2023-01-01T06:45:19;15.80;99.90
14182;DHT22;7171;50.936;6.764;2023-01-01T06:47:46;15.80;99.90
14182;DHT22;7171;50.936;6.764;2023-01-01T06:50:12;15.80;99.90
14182;DHT22;7171;50.936;6.764;2023-01-01T06:52:40;15.80;99.90
14182;DHT22;7171;50.936;6.764;2023-01-01T06:55:08;15.80;99.90
14182;DHT22;7171;50.936;6.764;2023-01-01T06:57:34;15.80;99.90
14182;DHT22;7171;50.936;6.764;2023-01-01T07:00:01;15.80;99.90
14182;DHT22;7171;50.936;6.764;2023-01-01T07:02:28;15.80;99.90
14182;DHT22;7171;50.936;6.764;2023-01-01T07:04:55;15.80;99.90
14182;DHT22;7171;50.936;6.764;2023-01-01T07:07:22;15.80;99.90
14182;DHT22;7171;50.936;6.764;2023-01-01T07:09:53;15.70;99.90
14182;DHT22;7171;50.936;6.764;2023-01-01T07:12:20;15.90;99.90
14182;DHT22;7171;50.936;6.764;2023-01-01T07:14:46;15.80;99.90
14182;DHT22;7171;50.936;6.764;2023-01-01T07:17:13;15.80;99.90
14182;DHT22;7171;50.936;6.764;2023-01-01T07:19:39;15.80;99.90
14182;DHT22;7171;50.936;6.764;2023-01-01T07:22:09;15.80;99.90
14182;DHT22;7171;50.936;6.764;2023-01-01T07:24:36;15.80;99.90
14182;DHT22;7171;50.936;6.764;2023-01-01T07:27:04;15.80;99.90
14182;DHT22;7171;50.936;6.764;2023-01-01T07:29:31;15.80;99.90
14182;DHT22;7171;50.936;6.764;2023-01-01T07:31:58;15.80;99.90
14182;DHT22;7171;50.936;6.764;2023-01-01T07:34:25;15.90;99.90
14182;DHT22;7171;50.936;6.764;2023-01-01T07:36:52;15.80;99.90
14182;DHT22;7171;50.936;6.764;2023-01-01T07:39:19;15.90;99.90
14182;DHT22;7171;50.936;6.764;2023-01-01T07:41:46;15.90;99.90
14182;DHT22;7171;50.936;6.764;2023-01-01T07:44:14;15.90;99.90
14182;DHT22;7171;50.936;6.764;2023-01-01T07:46:41;15.90;99.90
14182;DHT22;7171;50.936;6.764;2023-01-01T07:49:07;15.90;99.90
14182;DHT22;7171;50.936;6.764;2023-01-01T07:51:34;15.90;99.90
14182;DHT22;7171;50.936;6.764;2023-01-01T07:54:01;15.90;99.90
14182;DHT22;7171;50.936;6.764;2023-01-01T07:56:27;15.90;99.90
14182;DHT22;7171;50.936;6.764;2023-01-01T07:58:54;15.90;99.90
14182;DHT22;7171;50.936;6.764;2023-01-01T08:01:22;15.80;99.90
14182;DHT22;7171;50.936;6.764;2023-01-01T08:03:52;15.80;99.90
14182;DHT22;7171;50.936;6.764;2023-01-01T08:06:18;15.80;99.90
14182;DHT22;7171;50.936;6.764;2023-01-01T08:08:46;15.80;99.90
14182;DHT22;7171;50.936;6.764;2023-01-01T08:11:13;15.80;99.90
14182;DHT22;7171;50.936;6.764;2023-01-01T08:13:40;15.80;99.90
14182;DHT22;7171;50.936;6.764;2023-01-01T08:16:06;15.80;99.90
14182;DHT22;7171;50.936;6.764;2023-01-01T08:18:35;15.80;99.90
14182;DHT22;7171;50.936;6.764;2023-01-01T08:21:02;15.80;99.90
14182;DHT22;7171;50.936;6.764;2023-01-01T08:23:29;15.80;99.90
14182;DHT22;7171;50.936;6.764;2023-01-01T08:25:58;15.80;99.90
14182;DHT22;7171;50.936;6.764;2023-01-01T08:28:25;15.80;99.90
14182;DHT22;7171;50.936;6.764;2023-01-01T08:30:52;15.90;99.90
14182;DHT22;7171;50.936;6.764;2023-01-01T08:33:19;15.80;99.90
14182;DHT22;7171;50.936;6.764;2023-01-01T08:35:48;15.80;99.90
14182;DHT22;7171;50.936;6.764;2023-01-01T08:38:15;15.80;99.90
14182;DHT22;7171;50.936;6.764;2023-01-01T08:40:42;15.80;99.90
14182;DHT22;7171;50.936;6.764;2023-01-01T08:43:08;15.80;99.90
14182;DHT22;7171;50.936;6.764;2023-01-01T08:45:35;15.80;99.90
14182;DHT22;7171;50.936;6.764;2023-01-01T08:48:02;15.90;99.90
14182;DHT22;7171;50.936;6.764;2023-01-01T08:50:29;15.90;99.90
14182;DHT22;7171;50.936;6.764;2023-01-01T08:52:58;15.90;99.90
14182;DHT22;7171;50.936;6.764;2023-01-01T08:55:25;15.80;99.90
14182;DHT22;7171;50.936;6.764;2023-01-01T08:57:51;15.80;99.90
14182;DHT22;7171;50.936;6.764;2023-01-01T09:00:19;15.80;99.90
14182;DHT22;7171;50.936;6.764;2023-01-01T09:02:46;15.80;99.90
14182;DHT22;7171;50.936;6.764;2023-01-01T09:05:13;15.80;99.90
14182;DHT22;7171;50.936;6.764;2023-01-01T09:07:40;15.80;99.90
14182;DHT22;7171;50.936;6.764;2023-01-01T09:10:08;15.80;99.90
14182;DHT22;7171;50.936;6.764;2023-01-01T09:12:35;15.70;99.90
14182;DHT22;7171;50.936;6.764;2023-01-01T09:15:02;15.80;99.90
14182;DHT22;7171;50.936;6.764;2023-01-01T09:17:29;15.70;99.90
14182;DHT22;7171;50.936;6.764;2023-01-01T09:19:55;15.70;99.90
14182;DHT22;7171;50.936;6.764;2023-01-01T09:22:22;15.70;99.90
14182;DHT22;7171;50.936;6.764;2023-01-01T09:24:48;15.80;99.90
14182;DHT22;7171;50.936;6.764;2023-01-01T09:27:16;15.70;99.90
14182;DHT22;7171;50.936;6.764;2023-01-01T09:29:43;15.70;99.90
14182;DHT22;7171;50.936;6.764;2023-01-01T09:32:10;15.70;99.90
14182;DHT22;7171;50.936;6.764;2023-01-01T09:34:36;15.70;99.90
14182;DHT22;7171;50.936;6.764;2023-01-01T09:37:03;15.70;99.90
14182;DHT22;7171;50.936;6.764;2023-01-01T09:39:30;15.70;99.90
14182;DHT22;7171;50.936;6.764;2023-01-01T09:42:17;15.70;99.90
14182;DHT22;7171;50.936;6.764;2023-01-01T09:45:01;15.80;99.90
14182;DHT22;7171;50.936;6.764;2023-01-01T09:47:33;15.80;99.90
14182;DHT22;7171;50.936;6.764;2023-01-01T09:50:04;15.80;99.90
14182;DHT22;7171;50.936;6.764;2023-01-01T09:52:38;15.80;99.90
14182;DHT22;7171;50.936;6.764;2023-01-01T09:55:14;15.80;99.90
14182;DHT22;7171;50.936;6.764;2023-01-01T09:57:44;15.80;99.90
14182;DHT22;7171;50.936;6.764;2023-01-01T10:00:14;15.90;99.90
14182;DHT22;7171;50.936;6.764;2023-01-01T10:02:58;15.90;99.90
14182;DHT22;7171;50.936;6.764;2023-01-01T10:05:33;15.90;99.90
14182;DHT22;7171;50.936;6.764;2023-01-01T10:08:07;15.90;99.90
14182;DHT22;7171;50.936;6.764;2023-01-01T10:10:39;15.90;99.90
14182;DHT22;7171;50.936;6.764;2023-01-01T10:13:14;15.90;99.90
14182;DHT22;7171;50.936;6.764;2023-01-01T10:15:49;15.90;99.90
14182;DHT22;7171;50.936;6.764;2023-01-01T10:18:21;15.90;99.90
14182;DHT22;7171;50.936;6.764;2023-01-01T10:21:01;15.90;99.90
14182;DHT22;7171;50.936;6.764;2023-01-01T10:23:34;15.90;99.90
14182;DHT22;7171;50.936;6.764;2023-01-01T10:26:10;15.90;99.90
14182;DHT22;7171;50.936;6.764;2023-01-01T10:28:45;15.90;99.90
14182;DHT22;7171;50.936;6.764;2023-01-01T10:31:15;15.90;99.90
14182;DHT22;7171;50.936;6.764;2023-01-01T10:33:44;15.90;99.90
14182;DHT22;7171;50.936;6.764;2023-01-01T10:36:14;15.90;99.90
14182;DHT22;7171;50.936;6.764;2023-01-01T10:38:42;15.90;99.90
14182;DHT22;7171;50.936;6.764;2023-01-01T10:41:10;15.90;99.90
14182;DHT22;7171;50.936;6.764;2023-01-01T10:43:37;16.00;99.90
14182;DHT22;7171;50.936;6.764;2023-01-01T10:46:06;15.90;99.90
14182;DHT22;7171;50.936;6.764;2023-01-01T10:48:36;16.00;99.90
14182;DHT22;7171;50.936;6.764;2023-01-01T10:51:04;16.00;99.90
14182;DHT22;7171;50.936;6.764;2023-01-01T10:53:33;16.00;99.90
14182;DHT22;7171;50.936;6.764;2023-01-01T10:56:04;16.00;99.90
14182;DHT22;7171;50.936;6.764;2023-01-01T10:58:40;16.00;99.90
14182;DHT22;7171;50.936;6.764;2023-01-01T11:01:10;16.00;99.90
14182;DHT22;7171;50.936;6.764;2023-01-01T11:03:37;16.00;99.90
14182;DHT22;7171;50.936;6.764;2023-01-01T11:06:20;16.00;99.90
14182;DHT22;7171;50.936;6.764;2023-01-01T11:08:49;16.10;99.90
14182;DHT22;7171;50.936;6.764;2023-01-01T11:11:21;16.10;99.90
14182;DHT22;7171;50.936;6.764;2023-01-01T11:13:49;16.10;99.90
14182;DHT22;7171;50.936;6.764;2023-01-01T11:16:18;16.10;99.90
14182;DHT22;7171;50.936;6.764;2023-01-01T11:18:45;16.10;99.90
14182;DHT22;7171;50.936;6.764;2023-01-01T11:21:18;16.10;99.90
14182;DHT22;7171;50.936;6.764;2023-01-01T11:23:46;16.10;99.90
14182;DHT22;7171;50.936;6.764;2023-01-01T11:26:20;16.10;99.90
14182;DHT22;7171;50.936;6.764;2023-01-01T11:28:59;16.10;99.90
14182;DHT22;7171;50.936;6.764;2023-01-01T11:31:30;16.10;99.90
14182;DHT22;7171;50.936;6.764;2023-01-01T11:33:59;16.10;99.90
14182;DHT22;7171;50.936;6.764;2023-01-01T11:36:28;16.10;99.90
14182;DHT22;7171;50.936;6.764;2023-01-01T11:39:12;16.10;99.90
14182;DHT22;7171;50.936;6.764;2023-01-01T11:41:46;16.10;99.90
14182;DHT22;7171;50.936;6.764;2023-01-01T11:44:24;16.10;99.90
14182;DHT22;7171;50.936;6.764;2023-01-01T11:46:53;16.10;99.90
14182;DHT22;7171;50.936;6.764;2023-01-01T11:49:22;16.10;99.90
14182;DHT22;7171;50.936;6.764;2023-01-01T11:51:49;16.10;99.90
14182;DHT22;7171;50.936;6.764;2023-01-01T11:54:24;16.10;99.90
14182;DHT22;7171;50.936;6.764;2023-01-01T11:56:59;16.10;99.90
14182;DHT22;7171;50.936;6.764;2023-01-01T11:59:38;16.00;99.90
14182;DHT22;7171;50.936;6.764;2023-01-01T12:02:11;16.10;99.90
14182;DHT22;7171;50.936;6.764;2023-01-01T12:04:43;16.10;99.90
14182;DHT22;7171;50.936;6.764;2023-01-01T12:07:14;16.10;99.90
14182;DHT22;7171;50.936;6.764;2023-01-01T12:09:45;16.00;99.90
14182;DHT22;7171;50.936;6.764;2023-01-01T12:12:19;16.10;99.90
14182;DHT22;7171;50.936;6.764;2023-01-01T12:14:52;16.20;99.90
14182;DHT22;7171;50.936;6.764;2023-01-01T12:17:26;16.10;99.90
14182;DHT22;7171;50.936;6.764;2023-01-01T12:19:58;16.20;99.90
14182;DHT22;7171;50.936;6.764;2023-01-01T12:22:27;16.10;99.90
14182;DHT22;7171;50.936;6.764;2023-01-01T12:24:54;16.20;99.90
14182;DHT22;7171;50.936;6.764;2023-01-01T12:27:33;16.20;99.90
14182;DHT22;7171;50.936;6.764;2023-01-01T12:30:13;16.20;99.90
14182;DHT22;7171;50.936;6.764;2023-01-01T12:33:04;16.20;99.90
14182;DHT22;7171;50.936;6.764;2023-01-01T12:35:43;16.20;99.90
14182;DHT22;7171;50.936;6.764;2023-01-01T12:38:20;16.20;99.90
14182;DHT22;7171;50.936;6.764;2023-01-01T12:40:56;16.20;99.90
14182;DHT22;7171;50.936;6.764;2023-01-01T12:43:32;16.20;99.90
14182;DHT22;7171;50.936;6.764;2023-01-01T12:46:22;16.20;99.90
14182;DHT22;7171;50.936;6.764;2023-01-01T12:49:20;16.20;99.90
14182;DHT22;7171;50.936;6.764;2023-01-01T12:51:55;16.20;99.90
14182;DHT22;7171;50.936;6.764;2023-01-01T12:54:59;16.20;99.90
14182;DHT22;7171;50.936;6.764;2023-01-01T12:57:32;16.20;99.90
14182;DHT22;7171;50.936;6.764;2023-01-01T13:00:04;16.20;99.90
14182;DHT22;7171;50.936;6.764;2023-01-01T13:02:42;16.20;99.90
14182;DHT22;7171;50.936;6.764;2023-01-01T13:05:16;16.20;99.90
14182;DHT22;7171;50.936;6.764;2023-01-01T13:07:47;16.10;99.90
14182;DHT22;7171;50.936;6.764;2023-01-01T13:10:24;16.10;99.90
14182;DHT22;7171;50.936;6.764;2023-01-01T13:12:52;16.20;99.90
14182;DHT22;7171;50.936;6.764;2023-01-01T13:15:43;16.10;99.90
14182;DHT22;7171;50.936;6.764;2023-01-01T13:18:20;16.10;99.90
14182;DHT22;7171;50.936;6.764;2023-01-01T13:23:50;16.10;99.90
14182;DHT22;7171;50.936;6.764;2023-01-01T13:26:47;16.00;99.90
14182;DHT22;7171;50.936;6.764;2023-01-01T13:29:44;16.10;99.90
14182;DHT22;7171;50.936;6.764;2023-01-01T13:32:13;16.10;99.90
14182;DHT22;7171;50.936;6.764;2023-01-01T13:34:58;16.10;99.90
14182;DHT22;7171;50.936;6.764;2023-01-01T13:37:40;16.10;99.90
14182;DHT22;7171;50.936;6.764;2023-01-01T13:43:28;16.10;99.90
14182;DHT22;7171;50.936;6.764;2023-01-01T13:45:57;16.10;99.90
14182;DHT22;7171;50.936;6.764;2023-01-01T13:49:10;16.00;99.90
14182;DHT22;7171;50.936;6.764;2023-01-01T13:52:08;16.10;99.90
14182;DHT22;7171;50.936;6.764;2023-01-01T13:54:57;16.10;99.90
14182;DHT22;7171;50.936;6.764;2023-01-01T13:57:40;16.10;99.90
14182;DHT22;7171;50.936;6.764;2023-01-01T14:00:17;16.10;99.90
14182;DHT22;7171;50.936;6.764;2023-01-01T14:02:48;16.00;99.90
14182;DHT22;7171;50.936;6.764;2023-01-01T14:05:21;16.10;99.90
14182;DHT22;7171;50.936;6.764;2023-01-01T14:07:51;16.10;99.90
14182;DHT22;7171;50.936;6.764;2023-01-01T14:10:22;15.40;99.90
14182;DHT22;7171;50.936;6.764;2023-01-01T14:12:51;16.10;99.90
14182;DHT22;7171;50.936;6.764;2023-01-01T14:15:24;16.10;99.90
14182;DHT22;7171;50.936;6.764;2023-01-01T14:17:53;16.10;99.90
14182;DHT22;7171;50.936;6.764;2023-01-01T14:20:23;16.10;99.90
14182;DHT22;7171;50.936;6.764;2023-01-01T14:22:51;16.10;99.90
14182;DHT22;7171;50.936;6.764;2023-01-01T14:25:24;16.20;99.90
14182;DHT22;7171;50.936;6.764;2023-01-01T14:27:52;16.10;99.90
14182;DHT22;7171;50.936;6.764;2023-01-01T14:30:19;16.10;99.90
14182;DHT22;7171;50.936;6.764;2023-01-01T14:32:54;16.10;99.90
14182;DHT22;7171;50.936;6.764;2023-01-01T14:35:21;16.10;99.90
14182;DHT22;7171;50.936;6.764;2023-01-01T14:37:48;16.10;99.90
14182;DHT22;7171;50.936;6.764;2023-01-01T14:40:16;16.10;99.90
14182;DHT22;7171;50.936;6.764;2023-01-01T14:42:47;16.10;99.90
14182;DHT22;7171;50.936;6.764;2023-01-01T14:45:17;16.00;99.90
14182;DHT22;7171;50.936;6.764;2023-01-01T14:47:47;16.10;99.90
14182;DHT22;7171;50.936;6.764;2023-01-01T14:50:27;16.00;99.90
14182;DHT22;7171;50.936;6.764;2023-01-01T14:52:59;16.00;99.90
14182;DHT22;7171;50.936;6.764;2023-01-01T14:55:31;16.00;99.90
14182;DHT22;7171;50.936;6.764;2023-01-01T14:58:00;16.00;99.90
14182;DHT22;7171;50.936;6.764;2023-01-01T15:00:29;15.90;99.90
14182;DHT22;7171;50.936;6.764;2023-01-01T15:03:05;15.90;99.90
14182;DHT22;7171;50.936;6.764;2023-01-01T15:05:34;15.90;99.90
14182;DHT22;7171;50.936;6.764;2023-01-01T15:08:03;15.90;99.90
14182;DHT22;7171;50.936;6.764;2023-01-01T15:10:33;15.80;99.90
14182;DHT22;7171;50.936;6.764;2023-01-01T15:13:04;15.80;99.90
14182;DHT22;7171;50.936;6.764;2023-01-01T15:15:37;15.80;99.90
14182;DHT22;7171;50.936;6.764;2023-01-01T15:18:05;15.80;99.90
14182;DHT22;7171;50.936;6.764;2023-01-01T15:20:32;15.70;99.90
14182;DHT22;7171;50.936;6.764;2023-01-01T15:23:00;15.70;99.90
14182;DHT22;7171;50.936;6.764;2023-01-01T15:25:28;15.70;99.90
14182;DHT22;7171;50.936;6.764;2023-01-01T15:28:02;15.60;99.90
14182;DHT22;7171;50.936;6.764;2023-01-01T15:30:30;15.60;99.90
14182;DHT22;7171;50.936;6.764;2023-01-01T15:33:05;15.50;99.90
14182;DHT22;7171;50.936;6.764;2023-01-01T15:35:33;15.50;99.90
14182;DHT22;7171;50.936;6.764;2023-01-01T15:38:07;15.40;99.90
14182;DHT22;7171;50.936;6.764;2023-01-01T15:40:35;15.40;99.90
14182;DHT22;7171;50.936;6.764;2023-01-01T15:43:13;15.40;99.90
14182;DHT22;7171;50.936;6.764;2023-01-01T15:45:49;15.30;99.90
14182;DHT22;7171;50.936;6.764;2023-01-01T15:48:19;15.20;99.90
14182;DHT22;7171;50.936;6.764;2023-01-01T15:51:02;15.20;99.90
14182;DHT22;7171;50.936;6.764;2023-01-01T15:53:38;15.10;99.90
14182;DHT22;7171;50.936;6.764;2023-01-01T15:56:10;15.10;99.90
14182;DHT22;7171;50.936;6.764;2023-01-01T15:58:41;15.00;99.90
14182;DHT22;7171;50.936;6.764;2023-01-01T16:01:11;15.00;99.90
14182;DHT22;7171;50.936;6.764;2023-01-01T16:03:40;14.90;99.90
14182;DHT22;7171;50.936;6.764;2023-01-01T16:06:14;14.90;99.90
14182;DHT22;7171;50.936;6.764;2023-01-01T16:08:41;14.90;99.90
14182;DHT22;7171;50.936;6.764;2023-01-01T16:11:08;14.90;99.90
14182;DHT22;7171;50.936;6.764;2023-01-01T16:13:35;14.80;99.90